Time;durP1;ratioP1;P1;durP2;ratioP2;P2;SDS_P1;SDS_P2;PMS_P1;PMS_P2;Temp;Humidity;BMP_temperature;BMP_pressure;BME280_temperature;BME280_humidity;BME280_pressure;Samples;Min_cycle;Max_cycle;Signal;HPM_P1;HPM_P2
2021/03/13 00:00:20;;;;;;;32.05;13.27;;;;;;;2.64;52.86;97753.19;5093098;28;20077;-90
2021/03/13 00:02:47;;;;;;;18.23;9.05;;;;;;;2.62;53.62;97747.22;5106847;28;20067;-90
2021/03/13 00:05:21;;;;;;;23.35;9.93;;;;;;;2.66;53.43;97752.91;5113345;28;20107;-89
2021/03/13 00:07:47;;;;;;;29.85;10.77;;;;;;;2.68;53.15;97759.69;5109019;28;20030;-89
2021/03/13 00:10:12;;;;;;;24.58;10.13;;;;;;;2.70;52.90;97762.16;5112092;28;20130;-88
2021/03/13 00:12:38;;;;;;;22.67;8.50;;;;;;;2.72;53.50;97764.56;5092596;28;20483;-88
2021/03/13 00:15:04;;;;;;;25.55;11.07;;;;;;;2.74;53.21;97757.00;5109274;28;20063;-87
2021/03/13 00:17:30;;;;;;;28.40;10.77;;;;;;;2.73;53.31;97767.03;5108992;28;20502;-88
2021/03/13 00:19:55;;;;;;;25.58;10.70;;;;;;;2.72;53.00;97753.75;5111000;28;20023;-88
2021/03/13 00:22:20;;;;;;;25.77;10.43;;;;;;;2.73;52.66;97758.09;5108471;28;20058;-88
2021/03/13 00:24:47;;;;;;;25.42;10.68;;;;;;;2.72;52.57;97751.03;5111054;28;20020;-86
2021/03/13 00:27:12;;;;;;;27.20;11.40;;;;;;;2.70;52.33;97743.19;5109759;28;20084;-87
2021/03/13 00:29:38;;;;;;;25.63;10.98;;;;;;;2.69;52.60;97741.56;5108619;28;20028;-87
2021/03/13 00:32:03;;;;;;;25.50;9.95;;;;;;;2.68;52.68;97735.31;5107696;28;20016;-87
2021/03/13 00:34:29;;;;;;;23.02;10.27;;;;;;;2.67;52.45;97739.09;5111506;28;20035;-87
2021/03/13 00:36:54;;;;;;;23.55;9.80;;;;;;;2.67;51.96;97733.69;5106213;27;20040;-86
2021/03/13 00:39:20;;;;;;;27.48;9.88;;;;;;;2.66;52.46;97726.63;5108008;28;20561;-82
2021/03/13 00:41:45;;;;;;;23.90;9.82;;;;;;;2.65;52.04;97730.41;5111283;28;20020;-84
2021/03/13 00:44:11;;;;;;;26.98;10.50;;;;;;;2.63;52.11;97735.31;5111074;28;20050;-85
2021/03/13 00:46:36;;;;;;;23.85;9.15;;;;;;;2.63;52.51;97732.59;5112001;27;20448;-85
2021/03/13 00:49:03;;;;;;;28.02;9.60;;;;;;;2.60;52.02;97730.41;5111224;28;20108;-84
2021/03/13 00:51:29;;;;;;;22.08;9.77;;;;;;;2.58;52.75;97729.88;5110479;28;20031;-83
2021/03/13 00:53:55;;;;;;;21.23;8.05;;;;;;;2.55;52.61;97722.25;5104713;28;20028;-82
2021/03/13 00:56:20;;;;;;;24.33;9.23;;;;;;;2.54;52.49;97717.94;5090780;28;20028;-84
2021/03/13 00:58:46;;;;;;;20.67;8.90;;;;;;;2.56;52.65;97723.91;5107711;28;20125;-84
2021/03/13 01:01:12;;;;;;;25.17;10.70;;;;;;;2.55;52.48;97716.03;5109240;28;20030;-83
2021/03/13 01:03:37;;;;;;;20.58;9.00;;;;;;;2.57;52.51;97720.13;5110248;28;20027;-83
2021/03/13 01:06:03;;;;;;;17.00;7.95;;;;;;;2.57;52.79;97727.41;5110611;28;20406;-83
2021/03/13 01:08:29;;;;;;;19.10;8.70;;;;;;;2.57;52.55;97722.00;5109468;28;20097;-84
2021/03/13 01:10:54;;;;;;;22.38;9.85;;;;;;;2.56;52.62;97726.59;5110598;28;20027;-84
2021/03/13 01:13:20;;;;;;;21.13;9.70;;;;;;;2.52;52.58;97718.16;5110954;28;20471;-84
2021/03/13 01:15:46;;;;;;;23.20;9.98;;;;;;;2.52;52.67;97714.66;5110537;28;20084;-84
2021/03/13 01:18:12;;;;;;;18.80;8.77;;;;;;;2.50;52.91;97711.41;5110605;28;20031;-82
2021/03/13 01:20:38;;;;;;;19.35;7.90;;;;;;;2.54;53.52;97709.81;5106873;28;20027;-83
2021/03/13 01:23:04;;;;;;;23.27;9.52;;;;;;;2.56;53.26;97704.94;5110127;28;20055;-82
2021/03/13 01:25:30;;;;;;;24.80;10.90;;;;;;;2.56;52.91;97704.94;5111391;28;20055;-84
2021/03/13 01:27:55;;;;;;;18.58;9.20;;;;;;;2.58;52.97;97697.38;5109187;28;20027;-83
2021/03/13 01:30:21;;;;;;;22.75;10.35;;;;;;;2.59;52.84;97699.00;5110419;28;20484;-83
2021/03/13 01:32:48;;;;;;;22.20;10.90;;;;;;;2.59;53.47;97695.47;5113876;28;20080;-82
2021/03/13 01:35:14;;;;;;;23.35;10.88;;;;;;;2.57;53.25;97684.09;5112141;28;20023;-82
2021/03/13 01:37:40;;;;;;;21.50;9.93;;;;;;;2.59;53.45;97690.06;5114227;28;20497;-85
2021/03/13 01:40:10;;;;;;;24.90;9.68;;;;;;;2.58;53.70;97689.25;5114591;28;20028;-85
2021/03/13 01:42:36;;;;;;;20.02;7.88;;;;;;;2.57;53.66;97690.34;5112894;28;20024;-85
2021/03/13 01:45:04;;;;;;;19.45;8.23;;;;;;;2.58;53.55;97689.25;5114469;28;20110;-85
2021/03/13 01:47:29;;;;;;;14.15;6.70;;;;;;;2.58;53.90;97693.84;5113479;28;20028;-86
2021/03/13 01:49:56;;;;;;;15.48;6.80;;;;;;;2.58;53.80;97685.72;5114226;28;20030;-86
2021/03/13 01:52:21;;;;;;;19.00;7.72;;;;;;;2.56;54.00;97686.00;5113201;28;20024;-86
2021/03/13 01:54:48;;;;;;;14.18;6.78;;;;;;;2.58;54.50;97678.44;5112686;28;20049;-87
2021/03/13 01:57:16;;;;;;;17.10;6.82;;;;;;;2.61;53.94;97677.91;5112670;28;20046;-87
2021/03/13 01:59:41;;;;;;;14.07;6.82;;;;;;;2.63;53.90;97670.34;5113946;28;20527;-87
2021/03/13 02:02:12;;;;;;;14.52;6.78;;;;;;;2.66;53.75;97663.56;5113384;28;20024;-87
2021/03/13 02:04:38;;;;;;;13.40;6.35;;;;;;;2.70;53.53;97656.53;5096035;28;20049;-89
2021/03/13 02:07:04;;;;;;;11.50;5.47;;;;;;;2.73;53.63;97660.59;5092730;28;20499;-89
2021/03/13 02:09:33;;;;;;;14.73;6.07;;;;;;;2.72;53.21;97648.97;5112553;28;20043;-89
2021/03/13 02:12:41;;;;;;;10.55;5.03;;;;;;;2.75;53.98;97650.31;5113762;28;20034;-90
2021/03/13 02:15:26;;;;;;;12.90;6.28;;;;;;;2.77;53.26;97656.28;5085773;28;20503;-88
2021/03/13 02:18:02;;;;;;;10.90;5.03;;;;;;;2.78;53.41;97657.91;5093884;28;20102;-88
2021/03/13 02:20:46;;;;;;;13.02;5.57;;;;;;;2.79;53.58;97646.00;5112838;28;20855;-89
2021/03/13 02:23:13;;;;;;;10.50;5.22;;;;;;;2.82;53.37;97656.31;5109428;28;20066;-87
2021/03/13 02:26:06;;;;;;;10.95;5.28;;;;;;;2.82;53.33;97662.56;5093458;28;21808;-87
2021/03/13 02:28:56;;;;;;;12.18;5.25;;;;;;;2.84;53.32;97654.16;5111147;28;20116;-87
2021/03/13 02:31:25;;;;;;;11.18;5.03;;;;;;;2.85;53.67;97655.78;5112018;28;20028;-86
2021/03/13 02:33:53;;;;;;;14.98;5.75;;;;;;;2.86;53.59;97656.59;5106667;28;20077;-86
2021/03/13 02:36:19;;;;;;;9.43;4.82;;;;;;;2.86;53.97;97652.00;5112329;28;20019;-85
2021/03/13 02:38:55;;;;;;;9.07;4.70;;;;;;;2.87;53.84;97647.38;5111361;28;20035;-86
2021/03/13 02:41:24;;;;;;;10.73;4.95;;;;;;;2.87;54.70;97640.09;5110024;28;20065;-87
2021/03/13 02:43:57;;;;;;;11.98;5.95;;;;;;;2.91;53.76;97634.94;5094841;28;20499;-88
2021/03/13 02:46:24;;;;;;;12.23;5.60;;;;;;;2.92;53.72;97637.41;5113275;28;20024;-88
2021/03/13 02:48:51;;;;;;;10.98;4.80;;;;;;;2.92;54.26;97636.56;5111681;27;20028;-87
2021/03/13 02:51:19;;;;;;;10.32;4.90;;;;;;;2.93;54.02;97636.31;5092043;28;20032;-89
2021/03/13 02:53:46;;;;;;;8.60;5.20;;;;;;;2.94;54.68;97631.69;5109262;28;20016;-86
2021/03/13 02:56:15;;;;;;;10.07;4.60;;;;;;;2.94;54.59;97629.00;5095062;28;20026;-87
2021/03/13 02:58:43;;;;;;;10.48;4.95;;;;;;;2.95;54.58;97630.63;5110461;28;20090;-87
2021/03/13 03:01:09;;;;;;;11.57;5.68;;;;;;;2.95;54.56;97623.31;5093278;28;20838;-88
2021/03/13 03:03:37;;;;;;;7.68;4.32;;;;;;;2.94;54.23;97629.00;5112063;28;20040;-87
2021/03/13 03:06:03;;;;;;;11.55;4.75;;;;;;;2.94;54.40;97629.00;5111390;28;20030;-87
2021/03/13 03:08:29;;;;;;;12.23;5.25;;;;;;;2.92;54.14;97629.28;5111420;28;20059;-88
2021/03/13 03:10:56;;;;;;;11.38;5.13;;;;;;;2.91;54.21;97621.41;5110696;28;20024;-89
2021/03/13 03:13:25;;;;;;;8.65;4.60;;;;;;;2.89;54.32;97620.84;5109992;28;20448;-89
2021/03/13 03:15:53;;;;;;;9.02;5.13;;;;;;;2.87;54.04;97618.41;5111610;28;20108;-90
2021/03/13 03:18:24;;;;;;;14.77;5.13;;;;;;;2.86;54.33;97622.22;5108591;28;20035;-86
2021/03/13 03:20:51;;;;;;;12.18;5.32;;;;;;;2.86;54.54;97615.97;5111876;28;20028;-87
2021/03/13 03:23:17;;;;;;;10.32;4.75;;;;;;;2.85;54.37;97598.13;5108575;28;20031;-87
2021/03/13 03:25:45;;;;;;;10.60;4.80;;;;;;;2.85;54.10;97593.50;5112065;28;20032;-88
2021/03/13 03:28:13;;;;;;;9.85;4.30;;;;;;;2.85;53.87;97581.88;5111741;28;20035;-88
2021/03/13 03:30:39;;;;;;;9.07;4.53;;;;;;;2.88;54.16;97589.44;5111355;28;20076;-88
2021/03/13 03:33:05;;;;;;;9.30;4.00;;;;;;;2.89;54.56;97589.19;5120870;28;20015;-87
2021/03/13 03:35:31;;;;;;;8.98;3.85;;;;;;;2.90;54.35;97584.56;5134080;28;20060;-87
2021/03/13 03:38:03;;;;;;;8.43;4.05;;;;;;;2.92;54.24;97593.22;5130715;28;20032;-88
2021/03/13 03:40:32;;;;;;;8.20;3.00;;;;;;;2.91;54.47;97589.72;5134150;28;20474;-87
2021/03/13 03:43:03;;;;;;;7.80;3.67;;;;;;;2.97;54.37;97599.50;5129895;28;20027;-87
2021/03/13 03:45:31;;;;;;;8.93;3.67;;;;;;;3.00;54.11;97587.28;5131881;28;20115;-86
2021/03/13 03:48:01;;;;;;;7.93;3.63;;;;;;;3.04;53.63;97582.97;5131561;28;20011;-86
2021/03/13 03:50:26;;;;;;;9.40;3.67;;;;;;;3.07;53.73;97581.59;5134808;28;20018;-85
2021/03/13 03:52:57;;;;;;;8.95;3.42;;;;;;;3.12;54.12;97590.56;5133237;28;20027;-86
2021/03/13 03:55:23;;;;;;;7.25;3.35;;;;;;;3.13;53.81;97588.66;5133074;28;20024;-86
2021/03/13 03:57:51;;;;;;;7.70;3.05;;;;;;;3.20;53.56;97583.00;5136274;27;20034;-84
2021/03/13 04:00:18;;;;;;;6.53;3.10;;;;;;;3.26;53.49;97590.06;5134437;28;20075;-86
2021/03/13 04:02:45;;;;;;;7.00;3.38;;;;;;;3.27;53.51;97597.91;5135994;28;20032;-84
2021/03/13 04:05:13;;;;;;;6.88;2.75;;;;;;;3.28;53.55;97596.81;5135461;28;20373;-85
2021/03/13 04:07:41;;;;;;;8.45;3.38;;;;;;;3.28;53.34;97582.44;5134041;28;20104;-85
2021/03/13 04:10:08;;;;;;;5.70;2.65;;;;;;;3.30;53.43;97585.69;5115895;28;20035;-86
2021/03/13 04:12:37;;;;;;;7.60;3.47;;;;;;;3.36;52.96;97592.75;5112940;28;20496;-86
2021/03/13 04:15:04;;;;;;;8.13;3.65;;;;;;;3.39;52.44;97575.94;5113044;28;20067;-86
2021/03/13 04:17:31;;;;;;;7.90;3.35;;;;;;;3.45;52.77;97571.34;5093121;28;20126;-85
2021/03/13 04:19:57;;;;;;;8.57;3.70;;;;;;;3.48;52.91;97570.78;5110249;28;20015;-86
2021/03/13 04:22:23;;;;;;;8.55;3.38;;;;;;;3.51;52.63;97567.53;5109969;28;20113;-84
2021/03/13 04:24:49;;;;;;;9.50;3.65;;;;;;;3.56;52.86;97555.88;5112312;28;20145;-85
2021/03/13 04:27:17;;;;;;;7.90;2.97;;;;;;;3.60;52.37;97561.56;5111066;28;20110;-84
2021/03/13 04:29:43;;;;;;;8.98;3.47;;;;;;;3.64;52.41;97551.81;5110015;28;20023;-84
2021/03/13 04:32:09;;;;;;;7.10;2.85;;;;;;;3.67;51.79;97556.69;5110773;28;20057;-83
2021/03/13 04:34:35;;;;;;;7.68;2.95;;;;;;;3.71;52.20;97547.72;5110197;28;20020;-83
2021/03/13 04:37:02;;;;;;;8.45;3.65;;;;;;;3.77;52.40;97547.72;5112358;28;20020;-84
2021/03/13 04:39:28;;;;;;;6.95;3.00;;;;;;;3.81;52.08;97540.66;5112627;28;20019;-83
2021/03/13 04:41:55;;;;;;;6.10;2.97;;;;;;;3.81;51.72;97541.47;5110238;28;20434;-84
2021/03/13 04:44:21;;;;;;;8.10;2.63;;;;;;;3.86;51.87;97555.03;5112146;28;20529;-83
2021/03/13 04:46:48;;;;;;;9.95;3.47;;;;;;;3.88;51.79;97557.47;5092518;28;20110;-84
2021/03/13 04:49:14;;;;;;;5.55;2.42;;;;;;;3.93;51.99;97554.75;5111441;28;20027;-83
2021/03/13 04:51:39;;;;;;;9.45;3.50;;;;;;;3.97;51.82;97549.56;5112598;28;20031;-84
2021/03/13 04:54:05;;;;;;;7.32;3.17;;;;;;;4.02;52.01;97553.09;5092163;28;20353;-85
2021/03/13 04:56:31;;;;;;;7.93;3.33;;;;;;;4.04;51.58;97550.09;5112947;28;20016;-86
2021/03/13 04:58:56;;;;;;;8.52;3.55;;;;;;;4.11;51.32;97558.75;5112993;28;20424;-86
2021/03/13 05:01:21;;;;;;;7.88;3.40;;;;;;;4.13;51.21;97545.72;5113409;28;20429;-86
2021/03/13 05:03:47;;;;;;;8.93;3.08;;;;;;;4.20;51.39;97544.63;5112914;28;20066;-85
2021/03/13 05:06:13;;;;;;;8.32;3.40;;;;;;;4.23;50.89;97553.00;5112333;28;20449;-85
2021/03/13 05:08:39;;;;;;;9.80;3.25;;;;;;;4.26;51.62;97551.66;5110072;28;20097;-85
2021/03/13 05:11:05;;;;;;;9.40;3.72;;;;;;;4.30;50.95;97560.84;5112101;28;20460;-87
2021/03/13 05:13:30;;;;;;;18.75;7.68;;;;;;;4.33;51.01;97560.31;5111965;28;20012;-85
2021/03/13 05:15:56;;;;;;;14.35;5.93;;;;;;;4.36;50.85;97567.09;5111794;28;20016;-83
2021/03/13 05:18:21;;;;;;;14.20;6.82;;;;;;;4.39;51.46;97569.25;5106487;28;20100;-83
2021/03/13 05:20:47;;;;;;;23.33;10.15;;;;;;;4.43;50.61;97562.19;5111437;28;20023;-85
2021/03/13 05:23:12;;;;;;;8.85;4.43;;;;;;;4.52;50.63;97551.53;5106679;28;20061;-84
2021/03/13 05:25:38;;;;;;;8.88;5.70;;;;;;;4.55;50.88;97572.72;5108836;28;20020;-84
2021/03/13 05:28:03;;;;;;;9.27;5.20;;;;;;;4.58;51.02;97558.59;5110316;28;20059;-85
2021/03/13 05:30:29;;;;;;;9.18;4.80;;;;;;;4.61;51.24;97564.25;5111162;28;20592;-85
2021/03/13 05:32:54;;;;;;;7.47;3.65;;;;;;;4.68;50.97;97574.00;5107665;28;20103;-85
2021/03/13 05:35:21;;;;;;;7.72;4.13;;;;;;;4.69;50.53;97573.72;5111381;28;20439;-84
2021/03/13 05:37:46;;;;;;;8.95;4.20;;;;;;;4.70;50.81;97567.19;5110104;28;20076;-83
2021/03/13 05:40:12;;;;;;;8.45;4.07;;;;;;;4.72;51.04;97565.00;5111288;28;20751;-83
2021/03/13 05:42:39;;;;;;;9.57;4.90;;;;;;;4.80;51.09;97558.19;5111469;28;20427;-83
2021/03/13 05:45:07;;;;;;;9.27;4.40;;;;;;;4.84;50.63;97553.00;5108781;28;20047;-81
2021/03/13 05:47:35;;;;;;;8.25;5.00;;;;;;;4.87;50.65;97555.97;5111235;28;20066;-83
2021/03/13 05:50:10;;;;;;;9.07;4.18;;;;;;;4.90;50.86;97552.69;5107504;28;20055;-82
2021/03/13 05:52:37;;;;;;;13.60;5.85;;;;;;;4.91;50.90;97557.00;5109459;28;20024;-83
2021/03/13 05:55:08;;;;;;;18.02;8.30;;;;;;;4.94;49.95;97543.97;5109033;28;20020;-84
2021/03/13 05:57:35;;;;;;;16.23;8.77;;;;;;;4.95;49.85;97551.03;5109164;28;20034;-83
2021/03/13 06:00:03;;;;;;;16.58;7.05;;;;;;;4.95;50.58;97545.59;5092793;28;20495;-82
2021/03/13 06:02:29;;;;;;;16.65;7.10;;;;;;;4.96;49.94;97536.34;5106423;28;20045;-86
2021/03/13 06:04:54;;;;;;;11.93;6.32;;;;;;;4.97;50.32;97548.84;5110666;28;20016;-85
2021/03/13 06:07:24;;;;;;;13.32;5.93;;;;;;;4.95;50.46;97540.97;5108639;28;20050;-85
2021/03/13 06:09:51;;;;;;;9.57;4.53;;;;;;;4.94;50.78;97542.06;5111133;28;20070;-86
2021/03/13 06:12:16;;;;;;;9.00;4.65;;;;;;;4.90;50.52;97541.00;5109420;28;20475;-84
2021/03/13 06:14:42;;;;;;;9.55;4.53;;;;;;;4.91;50.81;97546.16;5110405;28;20034;-84
2021/03/13 06:17:07;;;;;;;6.68;3.92;;;;;;;4.89;50.41;97555.69;5094962;28;20019;-84
2021/03/13 06:19:54;;;;;;;12.15;6.03;;;;;;;4.90;50.57;97570.91;5114420;28;20024;-83
2021/03/13 06:22:35;;;;;;;11.27;5.70;;;;;;;4.88;51.05;97573.09;5111932;28;20039;-84
2021/03/13 06:25:27;;;;;;;14.73;7.55;;;;;;;4.87;50.90;97569.56;5094213;28;20472;-84
2021/03/13 06:28:05;;;;;;;15.23;8.93;;;;;;;4.86;50.56;97581.53;5110578;28;20129;-84
2021/03/13 06:30:34;;;;;;;14.27;9.27;;;;;;;4.87;50.91;97572.28;5112095;28;20019;-85
2021/03/13 06:33:00;;;;;;;10.48;5.20;;;;;;;4.88;51.60;97576.63;5109713;28;20475;-84
2021/03/13 06:35:30;;;;;;;10.55;4.95;;;;;;;4.91;51.50;97591.53;5115036;28;20027;-84
2021/03/13 06:37:59;;;;;;;15.77;6.80;;;;;;;4.90;51.25;97592.63;5113452;28;20028;-83
2021/03/13 06:40:36;;;;;;;12.15;4.47;;;;;;;4.94;51.38;97601.03;5113753;28;20084;-84
2021/03/13 06:43:17;;;;;;;12.45;5.90;;;;;;;4.95;51.68;97605.38;5110825;28;20026;-83
2021/03/13 06:45:56;;;;;;;18.42;7.18;;;;;;;5.00;51.20;97602.63;5111133;28;20027;-85
2021/03/13 06:48:55;;;;;;;36.53;13.30;;;;;;;5.03;51.52;97605.63;5112543;28;20043;-85
2021/03/13 06:51:23;;;;;;;63.70;20.73;;;;;;;5.12;50.89;97602.28;5057755;28;20385;-83
2021/03/13 06:54:21;;;;;;;43.50;15.02;;;;;;;5.16;51.09;97606.88;5090029;28;20030;-84
2021/03/13 06:56:52;;;;;;;25.45;8.80;;;;;;;5.24;50.64;97608.19;5037945;28;20487;-82
2021/03/13 06:59:39;;;;;;;69.65;19.63;;;;;;;5.29;50.97;97619.03;5113462;28;20499;-84
2021/03/13 07:02:11;;;;;;;30.98;8.57;;;;;;;5.33;50.85;97613.81;5112175;27;20028;-82
2021/03/13 07:04:36;;;;;;;45.08;13.82;;;;;;;5.37;50.89;97612.16;5110258;28;20020;-84
2021/03/13 07:07:03;;;;;;;46.72;13.65;;;;;;;5.42;51.26;97611.34;5112111;28;20049;-85
2021/03/13 07:10:06;;;;;;;58.72;16.80;;;;;;;5.46;50.72;97613.19;5113176;28;20514;-84
2021/03/13 07:12:34;;;;;;;23.55;7.60;;;;;;;5.52;50.78;97608.53;5060081;28;20483;-83
2021/03/13 07:15:23;;;;;;;54.50;14.80;;;;;;;5.55;50.80;97629.72;5110690;28;20023;-83
2021/03/13 07:17:53;;;;;;;83.25;19.65;;;;;;;5.60;50.83;97623.44;5111902;28;20016;-84
2021/03/13 07:20:31;;;;;;;36.33;10.77;;;;;;;5.64;50.38;97646.25;5111508;28;20098;-85
2021/03/13 07:22:58;;;;;;;91.88;23.38;;;;;;;5.70;50.56;97638.88;5111995;28;20020;-85
2021/03/13 07:25:26;;;;;;;19.52;6.53;;;;;;;5.75;49.86;97633.38;5110303;28;20031;-84
2021/03/13 07:27:59;;;;;;;39.15;11.77;;;;;;;5.79;50.47;97635.25;5112469;28;20027;-85
2021/03/13 07:30:26;;;;;;;51.78;16.10;;;;;;;5.86;49.61;97624.03;5110854;28;20075;-85
2021/03/13 07:32:58;;;;;;;11.40;4.68;;;;;;;5.92;49.92;97633.75;5111996;28;20605;-83
2021/03/13 07:35:27;;;;;;;62.03;26.02;;;;;;;5.96;49.58;97634.81;5108659;28;20267;-84
2021/03/13 07:37:58;;;;;;;17.05;5.80;;;;;;;6.05;49.24;97637.78;5113762;28;20027;-85
2021/03/13 07:40:24;;;;;;;17.33;6.70;;;;;;;6.13;49.27;97630.88;5109507;28;20032;-85
2021/03/13 07:42:50;;;;;;;15.68;6.28;;;;;;;6.21;49.26;97634.88;5111970;28;20039;-86
2021/03/13 07:45:18;;;;;;;9.20;4.05;;;;;;;6.29;49.09;97647.09;5111081;28;20020;-85
2021/03/13 07:47:43;;;;;;;23.92;7.32;;;;;;;6.33;49.44;97654.38;5113182;28;20431;-84
2021/03/13 07:50:11;;;;;;;11.45;4.82;;;;;;;6.37;49.02;97640.97;5112368;28;20024;-86
2021/03/13 07:52:38;;;;;;;15.20;5.30;;;;;;;6.39;49.18;97652.41;5108812;28;20088;-83
2021/03/13 07:55:11;;;;;;;31.80;11.70;;;;;;;6.39;48.74;97639.63;5112571;28;20051;-84
2021/03/13 07:57:37;;;;;;;26.55;9.07;;;;;;;6.37;48.48;97646.44;5108571;28;20109;-82
2021/03/13 08:00:03;;;;;;;21.90;8.00;;;;;;;6.37;48.51;97635.53;5112304;28;20024;-83
2021/03/13 08:02:31;;;;;;;21.33;7.55;;;;;;;6.37;48.26;97640.97;5111416;28;20032;-84
2021/03/13 08:05:10;;;;;;;15.23;5.88;;;;;;;6.36;48.77;97640.19;5110771;28;20103;-82
2021/03/13 08:08:00;;;;;;;23.52;9.27;;;;;;;6.33;48.73;97650.81;5111734;27;20499;-82
2021/03/13 08:10:45;;;;;;;;;;;;;;;6.32;49.21;97654.66;5113152;28;20460;-83
2021/03/13 08:13:36;;;;;;;23.80;8.02;;;;;;;6.33;48.81;97661.72;5109095;28;20447;-83
2021/03/13 08:16:05;;;;;;;;;;;;;;;6.40;48.70;97654.03;5096187;28;20043;-83
2021/03/13 08:18:49;;;;;;;13.80;4.88;;;;;;;6.49;48.69;97654.22;5112896;28;19919;-84
2021/03/13 08:21:35;;;;;;;19.25;7.70;;;;;;;6.62;48.59;97656.25;5091110;28;20032;-82
2021/03/13 08:24:01;;;;;;;23.00;9.65;;;;;;;6.75;48.44;97654.72;5088315;28;20035;-85
2021/03/13 08:26:36;;;;;;;14.32;6.57;;;;;;;6.89;48.29;97663.03;5110483;28;20030;-83
2021/03/13 08:29:07;;;;;;;11.95;5.57;;;;;;;7.00;48.04;97661.78;5090805;28;20664;-82
2021/03/13 08:31:46;;;;;;;12.10;5.75;;;;;;;7.08;47.85;97663.06;5111253;28;20020;-82
2021/03/13 08:34:18;;;;;;;9.35;4.07;;;;;;;7.14;47.22;97664.59;5106581;27;20026;-83
2021/03/13 08:36:46;;;;;;;10.32;4.28;;;;;;;7.14;47.66;97667.31;5108424;28;20499;-84
2021/03/13 08:39:17;;;;;;;16.25;6.78;;;;;;;7.20;47.52;97669.97;5111260;28;20015;-83
2021/03/13 08:41:42;;;;;;;10.98;4.15;;;;;;;7.23;47.17;97667.50;5106938;28;20345;-82
2021/03/13 08:44:33;;;;;;;8.27;3.70;;;;;;;7.26;46.84;97671.53;5111361;28;20020;-81
2021/03/13 08:47:12;;;;;;;10.32;4.22;;;;;;;7.30;47.53;97667.13;5093256;28;20201;-82
2021/03/13 08:49:47;;;;;;;12.57;5.57;;;;;;;7.37;47.17;97664.84;5111910;28;20494;-82
2021/03/13 08:52:18;;;;;;;9.85;4.40;;;;;;;7.45;47.12;97672.38;5110996;28;20019;-81
2021/03/13 08:54:47;;;;;;;7.18;3.50;;;;;;;7.53;46.84;97661.91;5109918;28;20053;-82
2021/03/13 08:57:16;;;;;;;9.00;4.55;;;;;;;7.64;46.98;97665.28;5109621;28;20049;-82
2021/03/13 08:59:43;;;;;;;6.70;2.88;;;;;;;7.66;46.71;97660.34;5107675;28;20031;-83
2021/03/13 09:02:12;;;;;;;6.55;3.72;;;;;;;7.71;46.50;97671.19;5110600;28;20026;-82
2021/03/13 09:04:41;;;;;;;9.18;4.65;;;;;;;7.77;46.72;97655.53;5109768;28;20019;-83
2021/03/13 09:07:08;;;;;;;7.75;3.60;;;;;;;7.80;46.61;97660.38;5108347;28;20015;-83
2021/03/13 09:09:36;;;;;;;8.00;3.38;;;;;;;7.85;46.47;97657.56;5108862;28;20039;-85
2021/03/13 09:12:09;;;;;;;10.43;4.10;;;;;;;7.88;46.74;97654.25;5108834;28;20149;-83
2021/03/13 09:14:37;;;;;;;9.40;4.65;;;;;;;7.96;46.81;97648.09;5111625;28;20123;-85
2021/03/13 09:17:17;;;;;;;6.50;2.85;;;;;;;8.06;46.22;97647.13;5112003;28;20050;-83
2021/03/13 09:19:44;;;;;;;5.93;2.55;;;;;;;8.09;45.73;97656.63;5109347;28;20072;-83
2021/03/13 09:22:17;;;;;;;7.72;3.67;;;;;;;8.09;45.42;97656.63;5111831;28;20020;-81
2021/03/13 09:24:43;;;;;;;7.18;3.30;;;;;;;8.14;45.68;97642.88;5108733;28;20023;-83
2021/03/13 09:27:10;;;;;;;6.32;2.58;;;;;;;8.22;45.61;97642.19;5110324;28;20028;-84
2021/03/13 09:29:37;;;;;;;9.38;3.60;;;;;;;8.25;45.62;97640.78;5109329;28;20066;-79
2021/03/13 09:32:06;;;;;;;5.85;3.17;;;;;;;8.32;45.24;97639.28;5110221;28;20020;-81
2021/03/13 09:34:33;;;;;;;10.07;4.22;;;;;;;8.38;45.25;97636.44;5110468;28;20027;-82
2021/03/13 09:37:07;;;;;;;5.65;2.50;;;;;;;8.41;45.34;97627.63;5110502;28;20020;-80
2021/03/13 09:39:33;;;;;;;8.75;5.07;;;;;;;8.42;44.88;97621.06;5109265;28;20068;-84
2021/03/13 09:42:09;;;;;;;18.40;11.02;;;;;;;8.44;45.19;97627.03;5110202;28;20356;-82
2021/03/13 09:44:37;;;;;;;65.18;33.13;;;;;;;8.47;45.20;97621.78;5109928;28;20036;-82
2021/03/13 09:47:14;;;;;;;9.35;3.78;;;;;;;8.50;45.07;97598.53;5090403;28;20027;-80
2021/03/13 09:49:40;;;;;;;20.38;10.30;;;;;;;8.55;45.20;97608.56;5111111;28;20039;-82
2021/03/13 09:52:05;;;;;;;47.65;30.67;;;;;;;8.61;45.08;97607.31;5113192;27;20051;-80
2021/03/13 09:54:31;;;;;;;11.65;5.68;;;;;;;8.61;44.35;97599.94;5121610;27;20023;-82
2021/03/13 09:56:56;;;;;;;8.10;3.17;;;;;;;8.61;43.89;97589.00;5119554;27;20064;-84
2021/03/13 09:59:22;;;;;;;13.60;8.45;;;;;;;8.61;44.21;97619.09;5119587;27;20031;-79
2021/03/13 10:01:48;;;;;;;11.38;7.03;;;;;;;8.64;44.01;97598.53;5113985;27;20117;-80
2021/03/13 10:04:13;;;;;;;6.60;3.35;;;;;;;8.70;43.98;97600.03;5095992;28;20553;-82
2021/03/13 10:06:41;;;;;;;7.20;3.17;;;;;;;8.74;44.34;97586.59;5114833;28;20028;-83
2021/03/13 10:09:11;;;;;;;10.20;5.05;;;;;;;8.83;43.73;97586.66;5091589;28;20051;-80
2021/03/13 10:11:43;;;;;;;13.52;7.50;;;;;;;8.87;43.62;97591.19;5093991;28;20028;-83
2021/03/13 10:14:23;;;;;;;13.60;9.63;;;;;;;8.97;43.42;97586.63;5093819;28;20383;-85
2021/03/13 10:17:00;;;;;;;17.48;8.20;;;;;;;9.09;42.57;97574.03;5088077;28;20028;-83
2021/03/13 10:19:36;;;;;;;7.50;3.78;;;;;;;9.14;42.08;97580.50;5063945;28;20035;-81
2021/03/13 10:22:22;;;;;;;8.55;3.75;;;;;;;9.15;42.25;97569.28;5059779;28;20044;-80
2021/03/13 10:24:53;;;;;;;7.05;3.55;;;;;;;9.20;42.29;97569.13;5068881;28;20024;-79
2021/03/13 10:27:29;;;;;;;7.80;3.17;;;;;;;9.21;42.36;97565.28;5070245;28;20039;-81
2021/03/13 10:30:03;;;;;;;5.53;2.50;;;;;;;9.23;41.97;97560.31;5068123;28;20514;-80
2021/03/13 10:32:30;;;;;;;9.85;4.85;;;;;;;9.20;42.12;97563.66;5067270;28;20024;-82
2021/03/13 10:35:05;;;;;;;7.35;3.53;;;;;;;9.20;42.19;97555.47;5067138;28;20099;-80
2021/03/13 10:37:35;;;;;;;5.97;2.95;;;;;;;9.17;41.68;97567.00;5069040;28;20043;-78
2021/03/13 10:40:01;;;;;;;8.05;5.03;;;;;;;9.14;42.17;97553.97;5062491;28;20059;-79
2021/03/13 10:42:26;;;;;;;7.78;3.80;;;;;;;9.14;42.28;97553.97;5057749;28;20182;-80
2021/03/13 10:44:52;;;;;;;8.60;5.85;;;;;;;9.19;42.24;97564.00;5064765;28;20472;-79
2021/03/13 10:47:36;;;;;;;10.88;5.82;;;;;;;9.26;42.72;97544.41;5068729;28;20366;-80
2021/03/13 10:50:01;;;;;;;8.45;4.78;;;;;;;9.30;42.20;97540.75;5066547;28;20035;-79
2021/03/13 10:52:28;;;;;;;12.98;8.63;;;;;;;9.31;41.96;97545.09;5066079;28;20468;-79
2021/03/13 10:54:55;;;;;;;8.43;4.65;;;;;;;9.32;42.40;97549.47;5069013;28;20033;-79
2021/03/13 10:57:20;;;;;;;7.50;2.97;;;;;;;9.29;41.84;97532.84;5069390;28;20025;-79
2021/03/13 10:59:46;;;;;;;9.07;5.55;;;;;;;9.28;42.41;97525.75;5064259;28;20050;-78
2021/03/13 11:02:11;;;;;;;11.30;6.03;;;;;;;9.27;42.52;97516.75;5068286;28;20629;-79
2021/03/13 11:04:37;;;;;;;8.13;4.28;;;;;;;9.28;42.21;97503.84;5060021;28;20036;-80
2021/03/13 11:07:02;;;;;;;7.95;4.82;;;;;;;9.30;42.22;97515.28;5066185;28;20489;-79
2021/03/13 11:09:29;;;;;;;9.15;5.10;;;;;;;9.29;42.51;97510.94;5079413;27;20040;-78
2021/03/13 11:11:55;;;;;;;13.40;8.05;;;;;;;9.32;42.59;97515.78;5084400;28;20036;-77
2021/03/13 11:14:22;;;;;;;10.48;5.30;;;;;;;9.34;42.62;97497.13;5085291;28;20028;-79
2021/03/13 11:16:47;;;;;;;16.17;9.40;;;;;;;9.33;42.35;97488.13;5086798;28;20031;-77
2021/03/13 11:19:14;;;;;;;15.45;9.57;;;;;;;9.35;42.79;97483.16;5085103;28;20028;-78
2021/03/13 11:21:41;;;;;;;11.57;5.40;;;;;;;9.34;42.50;97486.19;5080726;28;20124;-81
2021/03/13 11:24:08;;;;;;;12.40;7.47;;;;;;;9.35;42.63;97476.88;5080060;28;20055;-77
2021/03/13 11:26:33;;;;;;;11.73;5.90;;;;;;;9.39;42.54;97480.59;5079132;28;20093;-77
2021/03/13 11:28:59;;;;;;;13.65;9.07;;;;;;;9.43;42.33;97461.63;5085947;28;20028;-78
2021/03/13 11:31:25;;;;;;;16.20;8.40;;;;;;;9.49;42.52;97458.44;5085112;28;21152;-79
2021/03/13 11:33:50;;;;;;;9.55;4.53;;;;;;;9.53;41.94;97467.66;5086541;28;20066;-78
2021/03/13 11:36:17;;;;;;;7.38;3.78;;;;;;;9.56;42.09;97460.72;5102344;27;20420;-77
2021/03/13 11:38:44;;;;;;;15.90;7.07;;;;;;;9.58;42.05;97460.44;5086494;28;20482;-79
2021/03/13 11:41:12;;;;;;;30.10;21.30;;;;;;;9.60;42.19;97442.56;5085550;28;20392;-80
2021/03/13 11:43:42;;;;;;;263.13;129.13;;;;;;;9.65;42.33;97450.63;5078702;28;20143;-78
2021/03/13 11:46:08;;;;;;;26.67;11.85;;;;;;;9.68;42.26;97435.50;5078722;28;20020;-79